• Join FlightAware (Why Join?)
  • Login
  • US Flag 
05:23AM EDT


 

Airport Tracker/Info


-or-


 

Live Flight TrackerFlight Track Log ✈ DAL1826 ✈ 11-Jul-2013 ✈ KATL - KFLL

Flight Track Log - Related Links

Times and Time Zones

All times are in EDT time to prevent confusion due to time zone crossing. See the DAL1826 flight status page for this flight to view local times or setup timezone preferences in your user account.

Time Position Orientation Groundspeed Altitude Reporting Facility
EDT Latitude Longitude Course Direction KTS MPH feet Rate Location/Type
01:12PM 33.6347 -84.4778 160° South 462 532 2,500  Level Atlanta Center
01:13PM 33.6344 -84.5728 270° West 386 444 4,800 2,700 Climbing Atlanta Center
01:14PM 33.6194 -84.6625 259° West 295 339 8,000 2,640 Climbing Atlanta Center
01:15PM 33.2318 -84.2287 168° South  Level FlightAware Approximate
01:15PM 33.5381 -84.6819 191° South 305 351 10,100  Level Atlanta Center
01:16PM 33.1081 -84.1978 168° South  Level FlightAware Approximate
01:16PM 33.4589 -84.6364 154° Southeast 302 348 11,400  Level Atlanta Center
01:17PM 32.9848 -84.1672 164° South  Level FlightAware Approximate
01:17PM 33.3778 -84.5539 140° Southeast 347 399 12,700  Level Atlanta Center
01:18PM 32.8656 -84.1168 160° South  Level FlightAware Approximate
01:18PM 33.2925 -84.4686 140° Southeast 393 452 14,800  Level Atlanta Center
01:19PM 33.2031 -84.3764 139° Southeast 422 486 16,700 1,620 Climbing Atlanta Center
01:20PM 33.1094 -84.2844 141° Southeast 433 498 18,100 1,440 Climbing Atlanta Center
01:21PM 33.0219 -84.1997 141° Southeast 439 505 19,600 1,320 Climbing Atlanta Center
01:22PM 32.9072 -84.1353 155° Southeast 445 512 20,800 1,260 Climbing Atlanta Center
01:23PM 32.7819 -84.0858 162° South 460 529 22,200 1,200 Climbing Atlanta Center
01:24PM 32.6567 -84.0339 161° South 470 541 23,200 1,080 Climbing Atlanta Center
01:25PM 32.5336 -83.9822 161° South 476 548 24,400 1,260 Climbing Atlanta Center
01:26PM 32.4083 -83.9331 162° South 481 554 25,800 1,140 Climbing Atlanta Center
01:29PM 32.1236 -83.8150 161° South 494 568 28,200 1,260 Climbing Jacksonville Center
01:30PM 31.9986 -83.7647 161° South 484 557 30,000 1,320 Climbing Jacksonville Center
01:31PM 31.8653 -83.7072 160° South 467 537 30,900 420 Climbing Jacksonville Center
01:32PM 31.7425 -83.6547 160° South 469 540 30,900  Level Jacksonville Center
01:33PM 31.6258 -83.6100 162° South 477 549 31,000  Climbing Jacksonville Center
01:34PM 31.5050 -83.5675 163° South 477 549 31,000  Level Jacksonville Center
01:35PM 31.3736 -83.5156 161° South 472 543 31,000 -60 Level Jacksonville Center
01:36PM 31.2508 -83.4661 161° South 467 537 30,900  Descending Jacksonville Center
01:37PM 31.1297 -83.4192 162° South 461 531 31,000  Climbing Jacksonville Center
01:38PM 31.0047 -83.3678 161° South 461 531 30,900  Descending Jacksonville Center
01:39PM 30.8817 -83.3186 161° South 461 531 31,000  Climbing Jacksonville Center
01:40PM 30.7608 -83.2794 164° South 461 531 30,900 -60 Descending Jacksonville Center
01:41PM 30.6292 -83.2836 182° South 456 525 30,900  Level Jacksonville Center
01:42PM 30.4997 -83.2928 183° South 462 532 30,900  Level Jacksonville Center
01:43PM 30.3681 -83.3139 188° South 472 543 30,900  Level Jacksonville Center
01:44PM 30.2386 -83.3375 189° South 472 543 30,900  Level Jacksonville Center
01:45PM 30.1050 -83.3583 188° South 484 557 30,900  Level Jacksonville Center
01:46PM 29.9756 -83.3386 172° South 472 543 30,900  Level Jacksonville Center
01:47PM 29.8483 -83.2950 163° South 472 543 30,900  Level Jacksonville Center
01:48PM 29.7358 -83.2442 159° South 472 543 30,900  Level Jacksonville Center
01:49PM 29.6128 -83.1936 160° South 479 551 30,900  Level Jacksonville Center
01:50PM 29.4875 -83.1408 160° South 479 551 30,900  Level Jacksonville Center
01:51PM 29.3667 -83.0903 160° South 474 545 30,900  Level Jacksonville Center
01:52PM 29.2456 -83.0378 159° South 469 540 30,900  Level Jacksonville Center
01:53PM 29.1244 -82.9900 161° South 469 540 30,900  Level Jacksonville Center
01:54PM 29.0014 -82.9378 160° South 469 540 30,900  Level Jacksonville Center
01:55PM 28.8761 -82.8856 160° South 469 540 30,900  Level Jacksonville Center
01:56PM 28.7531 -82.8358 160° South 469 540 30,900  Level Jacksonville Center
01:57PM 28.6194 -82.7839 161° South 469 540 30,900  Level Jacksonville Center
01:58PM 28.4983 -82.7319 159° South 469 540 30,900  Level Jacksonville Center
02:00PM 28.2594 -82.6353 160° South 479 551 30,900  Level Miami Center
02:01PM 28.1322 -82.5817 160° South 479 551 30,900  Level Miami Center
02:02PM 28.0133 -82.5333 160° South 479 551 30,900  Level Miami Center
02:03PM 27.8878 -82.4872 162° South 474 545 30,900  Level Miami Center
02:04PM 27.7542 -82.4383 162° South 474 545 30,900  Level Miami Center
02:05PM 27.6233 -82.4203 173° South 474 545 31,000  Climbing Miami Center
02:06PM 27.5067 -82.4169 179° South 468 539 30,900 -60 Descending Miami Center
02:07PM 27.3756 -82.4106 178° South 475 547 30,900  Level Miami Center
02:08PM 27.2336 -82.4086 179° South 468 539 30,900  Level Miami Center
02:09PM 27.1003 -82.4044 178° South 473 544 30,900 -180 Level Miami Center
02:10PM 26.9647 -82.4003 178° South 473 544 30,600 -780 Descending Miami Center
02:11PM 26.8356 -82.3942 178° South 478 550 29,400 -1,140 Descending Miami Center
02:12PM 26.7044 -82.3881 178° South 473 544 28,400 -1,200 Descending Miami Center
02:13PM 26.5756 -82.3750 175° South 473 544 27,100 -1,740 Descending Miami Center
02:14PM 26.4614 -82.3000 150° Southeast 461 531 25,000 -1,200 Descending Miami Center
02:15PM 26.3575 -82.2303 149° Southeast 461 531 24,700 -540 Descending Miami Center
02:16PM 26.2681 -82.1614 145° Southeast 407 468 24,000 -720 Descending Miami Center
02:17PM 26.2283 -82.0533 112° Southeast 376 433 23,300 -1,140 Descending Miami Center
02:18PM 26.1983 -81.9525 108° East 376 433 21,800 -1,680 Descending Miami Center
02:19PM 26.1667 -81.8400 107° East 376 433 20,000 -1,560 Descending Miami Center
02:20PM 26.1369 -81.7369 108° East 365 420 18,700 -1,500 Descending Miami Center
02:21PM 26.1028 -81.6314 110° East 335 386 17,100 -1,500 Descending Miami Center
02:22PM 26.0744 -81.5381 109° East 327 376 15,700 -1,500 Descending Miami Center
02:23PM 26.0439 -81.4489 111° Southeast 316 364 14,100 -1,680 Descending Miami Center
02:24PM 26.0175 -81.3578 108° East 309 356 12,400 -1,740 Descending Miami Center
02:25PM 25.9906 -81.2806 111° Southeast 303 349 10,700 -1,560 Descending Miami Center
02:26PM 25.9658 -81.1964 108° East 292 336 9,300 -1,380 Descending Miami Center
02:27PM 25.9369 -81.1122 111° Southeast 292 336 8,000 -660 Descending Miami Center
02:28PM 25.9122 -81.0306 109° East 292 336 8,000  Level Miami Center
02:29PM 25.9147 -80.9406 88° East 281 323 8,000  Level Miami Center
02:30PM 25.9236 -80.8531 84° East 281 323 8,000 -480 Level Miami Center
02:31PM 25.9514 -80.7500 73° East 240 276 7,000 -900 Descending Miami Center
02:32PM 25.9672 -80.7044 69° East 250 288 6,300 -600 Descending Miami Center
02:33PM 25.9919 -80.6358 68° East 243 280 6,000 -540 Descending Miami Center
02:34PM 26.0122 -80.5742 70° East 230 265 5,300 -540 Descending Miami Center
02:35PM 26.0492 -80.5244 50° Northeast 213 245 5,000 -180 Descending Miami Center
02:35PM 26.0664 -80.4972 55° Northeast 186 214 5,100  Climbing Miami Center
02:36PM 26.0794 -80.4767 55° Northeast 199 229 5,000 -660 Descending Miami Center
02:37PM 26.0772 -80.4028 92° East 175 201 3,900 -900 Descending Miami Center
02:38PM 26.0744 -80.3403 93° East 181 208 3,000 -900 Descending Miami Center